Time;durP1;ratioP1;P1;durP2;ratioP2;P2;SDS_P1;SDS_P2;PMS_P1;PMS_P2;Temp;Humidity;BMP_temperature;BMP_pressure;BME280_temperature;BME280_humidity;BME280_pressure;Samples;Min_cycle;Max_cycle;Signal;HPM_P1;HPM_P2
2021/03/15 00:01:36;;;;;;;41.18;29.42;;;;;;;5.76;100.00;98026.76;1754437;80;20969;-66
2021/03/15 00:04:07;;;;;;;38.53;27.73;;;;;;;5.81;100.00;98028.91;1752682;80;20946;-66
2021/03/15 00:06:38;;;;;;;40.43;29.83;;;;;;;5.86;100.00;98031.06;1754706;80;20954;-65
2021/03/15 00:09:11;;;;;;;41.18;29.77;;;;;;;5.90;100.00;98034.13;1754772;81;20887;-66
2021/03/15 00:11:41;;;;;;;39.40;29.67;;;;;;;5.89;100.00;98030.64;1739144;80;21196;-66
2021/03/15 00:14:11;;;;;;;37.93;28.27;;;;;;;5.86;100.00;98026.70;1728751;80;20974;-66
2021/03/15 00:16:43;;;;;;;42.58;30.55;;;;;;;5.81;100.00;98031.53;1725324;81;21503;-66
2021/03/15 00:19:13;;;;;;;41.10;30.25;;;;;;;5.74;100.00;98025.89;1724731;81;20954;-66
2021/03/15 00:21:46;;;;;;;40.52;29.95;;;;;;;5.71;100.00;98035.06;1725004;81;20986;-66
2021/03/15 00:24:20;;;;;;;37.23;28.42;;;;;;;5.74;100.00;98037.23;1728017;81;22123;-66
2021/03/15 00:26:50;;;;;;;39.18;29.32;;;;;;;5.69;100.00;98035.08;1704974;83;21529;-66
2021/03/15 00:29:21;;;;;;;40.60;30.70;;;;;;;5.74;100.00;98032.00;1726646;82;20911;-66
2021/03/15 00:31:51;;;;;;;39.27;28.23;;;;;;;5.77;100.00;98031.98;1747109;82;20962;-66
2021/03/15 00:34:26;;;;;;;39.42;29.45;;;;;;;5.79;100.00;98031.53;1745471;82;20978;-66
2021/03/15 00:36:56;;;;;;;39.50;30.10;;;;;;;5.82;100.00;98028.03;1747527;82;21081;-66
2021/03/15 00:39:26;;;;;;;44.58;31.85;;;;;;;5.82;100.00;98026.28;1747566;82;21037;-66
2021/03/15 00:41:55;;;;;;;40.05;28.95;;;;;;;5.79;100.00;98025.43;1730560;81;21015;-65
2021/03/15 00:44:25;;;;;;;41.60;29.48;;;;;;;5.73;100.00;98026.77;1717745;83;21108;-65
2021/03/15 00:46:56;;;;;;;40.67;29.30;;;;;;;5.66;100.00;98025.90;1745251;82;20978;-65
2021/03/15 00:49:29;;;;;;;41.48;29.52;;;;;;;5.65;100.00;98020.23;1720204;82;21561;-65
2021/03/15 00:51:59;;;;;;;43.02;29.40;;;;;;;5.65;100.00;98015.00;1747025;82;21021;-65
2021/03/15 00:54:29;;;;;;;40.35;29.05;;;;;;;5.65;100.00;98018.48;1747531;82;21002;-65
2021/03/15 00:56:59;;;;;;;39.98;28.95;;;;;;;5.67;100.00;98019.35;1722804;81;20970;-65
2021/03/15 00:59:29;;;;;;;43.17;30.77;;;;;;;5.67;100.00;98014.55;1717935;82;20978;-66
2021/03/15 01:01:59;;;;;;;45.43;30.80;;;;;;;5.61;100.00;98006.30;1737761;82;21449;-65
2021/03/15 01:04:30;;;;;;;48.68;32.60;;;;;;;5.56;100.00;98001.53;1747413;82;21005;-65
2021/03/15 01:07:03;;;;;;;47.60;31.73;;;;;;;5.52;100.00;98000.25;1720766;82;20970;-66
2021/03/15 01:09:35;;;;;;;47.30;31.20;;;;;;;5.47;100.00;97997.65;1717615;82;21516;-67
2021/03/15 01:12:08;;;;;;;44.20;31.05;;;;;;;5.46;100.00;97990.67;1718012;82;20939;-66
2021/03/15 01:14:38;;;;;;;43.00;30.72;;;;;;;5.48;100.00;97990.23;1719772;82;22145;-66
2021/03/15 01:17:12;;;;;;;46.67;31.47;;;;;;;5.48;100.00;97990.23;1720048;82;20951;-66
2021/03/15 01:19:44;;;;;;;46.88;31.27;;;;;;;5.48;100.00;97991.98;1717799;83;21533;-66
2021/03/15 01:22:13;;;;;;;46.70;32.40;;;;;;;5.50;100.00;97987.61;1718110;82;20958;-65
2021/03/15 01:24:45;;;;;;;53.38;33.58;;;;;;;5.48;100.00;97991.54;1734999;80;20958;-65
2021/03/15 01:27:15;;;;;;;46.98;31.15;;;;;;;5.45;100.00;97990.25;1758106;79;21367;-66
2021/03/15 01:29:45;;;;;;;47.83;30.82;;;;;;;5.44;100.00;97988.51;1736345;81;20977;-65
2021/03/15 01:32:15;;;;;;;46.23;31.35;;;;;;;5.45;100.00;97990.25;1735438;81;20969;-66
2021/03/15 01:34:46;;;;;;;48.75;32.55;;;;;;;5.37;100.00;97990.72;1764147;80;20945;-65
2021/03/15 01:37:17;;;;;;;48.40;32.10;;;;;;;5.32;100.00;97993.36;1765757;81;20938;-65
2021/03/15 01:39:48;;;;;;;50.33;32.53;;;;;;;5.26;100.00;97991.20;1763569;81;22374;-66
2021/03/15 01:42:18;;;;;;;51.05;32.20;;;;;;;5.19;100.00;97990.76;1765390;81;20914;-65
2021/03/15 01:44:49;;;;;;;47.75;32.08;;;;;;;5.14;100.00;97992.08;1745370;81;20975;-65
2021/03/15 01:47:19;;;;;;;47.40;31.50;;;;;;;5.10;100.00;97989.48;1737414;81;20946;-66
2021/03/15 01:49:49;;;;;;;53.25;34.98;;;;;;;5.05;100.00;97991.67;1737385;81;21057;-65
2021/03/15 01:52:20;;;;;;;49.58;32.58;;;;;;;5.05;100.00;97986.45;1758326;81;21265;-65
2021/03/15 01:54:50;;;;;;;47.80;33.10;;;;;;;5.05;100.00;97992.98;1751790;81;21504;-65
2021/03/15 01:57:21;;;;;;;46.48;31.52;;;;;;;5.07;100.00;97991.67;1735422;81;21489;-66
2021/03/15 01:59:51;;;;;;;50.08;32.38;;;;;;;5.09;100.00;97987.30;1741897;81;20955;-66
2021/03/15 02:02:24;;;;;;;47.78;32.45;;;;;;;5.12;100.00;97987.73;1735668;81;20945;-65
2021/03/15 02:04:54;;;;;;;45.58;30.40;;;;;;;5.09;100.00;97985.12;1735698;81;21206;-65
2021/03/15 02:07:26;;;;;;;46.02;30.17;;;;;;;5.10;100.00;97982.95;1736553;81;20982;-65
2021/03/15 02:09:56;;;;;;;47.43;30.85;;;;;;;5.08;100.00;97980.34;1735407;81;20954;-65
2021/03/15 02:13:07;;;;;;;52.55;33.13;;;;;;;5.11;100.00;97993.40;1735404;81;21097;-65
2021/03/15 02:15:59;;;;;;;51.95;32.38;;;;;;;5.13;100.00;97989.47;1735991;81;21532;-65
2021/03/15 02:19:02;;;;;;;46.05;31.37;;;;;;;5.08;100.00;97996.02;1755659;81;21377;-65
2021/03/15 02:21:45;;;;;;;46.18;30.60;;;;;;;5.06;100.00;97996.46;1738490;82;21697;-65
2021/03/15 02:24:48;;;;;;;40.63;25.43;;;;;;;5.05;100.00;97994.72;1731236;81;21541;-66
2021/03/15 02:27:34;;;;;;;51.40;31.45;;;;;;;5.01;100.00;98005.63;1727022;82;21500;-66
2021/03/15 02:30:44;;;;;;;51.58;31.50;;;;;;;5.05;100.00;97998.64;1729487;81;23935;-65
2021/03/15 02:33:52;;;;;;;54.70;31.73;;;;;;;5.04;100.00;97995.16;1742991;82;21203;-65
2021/03/15 02:36:23;;;;;;;54.45;33.25;;;;;;;5.06;100.00;97989.92;1746473;82;20958;-65
2021/03/15 02:38:52;;;;;;;51.30;32.13;;;;;;;5.01;100.00;97996.48;1737255;82;20918;-66
2021/03/15 02:41:22;;;;;;;54.18;32.65;;;;;;;4.98;100.00;97995.17;1726017;82;21079;-65
2021/03/15 02:44:00;;;;;;;48.90;31.42;;;;;;;4.97;100.00;97993.44;1748689;79;20946;-66
2021/03/15 02:46:30;;;;;;;52.33;32.10;;;;;;;4.94;100.00;97990.83;1723470;82;21274;-65
2021/03/15 02:49:04;;;;;;;58.90;32.55;;;;;;;4.95;100.00;97999.55;1739722;80;21005;-65
2021/03/15 02:51:35;;;;;;;53.30;32.45;;;;;;;4.91;100.00;97996.06;1732600;80;20942;-65
2021/03/15 02:54:10;;;;;;;49.83;31.17;;;;;;;4.84;100.00;97991.73;1743233;79;20926;-65
2021/03/15 02:56:43;;;;;;;46.65;29.67;;;;;;;4.84;100.00;97993.03;1750806;79;20985;-65
2021/03/15 02:59:15;;;;;;;50.15;29.95;;;;;;;4.83;100.00;98001.74;1769921;79;21370;-66
2021/03/15 03:01:46;;;;;;;51.00;30.48;;;;;;;4.87;100.00;97996.95;1715353;82;21504;-65
2021/03/15 03:04:17;;;;;;;51.05;31.20;;;;;;;4.87;100.00;97994.33;1752607;79;20965;-65
2021/03/15 03:06:49;;;;;;;;;;;;;;;4.90;100.00;97988.23;1743882;79;20946;-67
2021/03/15 03:09:19;;;;;;;49.55;29.05;;;;;;;4.89;100.00;97989.97;1754086;81;20251;-65
2021/03/15 03:11:49;;;;;;;52.43;29.75;;;;;;;4.88;100.00;97992.16;1768923;79;21197;-64
2021/03/15 03:14:19;;;;;;;50.52;31.33;;;;;;;4.89;100.00;97990.41;1749704;80;21485;-64
2021/03/15 03:16:49;;;;;;;49.23;30.60;;;;;;;4.91;100.00;97994.76;1694869;83;21504;-70
2021/03/15 03:19:20;;;;;;;51.98;30.55;;;;;;;4.91;100.00;97996.50;1722533;82;20973;-66
2021/03/15 03:21:50;;;;;;;49.00;30.25;;;;;;;4.89;100.00;97993.02;1738622;80;21065;-65
2021/03/15 03:24:19;;;;;;;69.85;31.70;;;;;;;4.90;100.00;97993.02;1752370;80;21154;-65
2021/03/15 03:26:49;;;;;;;47.67;29.35;;;;;;;4.91;100.00;97992.14;1766496;81;21492;-65
2021/03/15 03:29:19;;;;;;;49.42;29.50;;;;;;;4.91;100.00;97991.28;1787087;79;20937;-65
2021/03/15 03:31:52;;;;;;;50.12;30.97;;;;;;;4.93;100.00;97996.06;1750277;80;20910;-65
2021/03/15 03:34:21;;;;;;;54.88;30.10;;;;;;;4.94;100.00;97993.88;1735589;82;20954;-65
2021/03/15 03:36:51;;;;;;;52.43;30.30;;;;;;;4.97;100.00;97982.98;1737462;81;21203;-65
2021/03/15 03:39:23;;;;;;;47.93;29.57;;;;;;;5.01;100.00;97988.63;1735423;82;20965;-65
2021/03/15 03:41:53;;;;;;;45.97;29.07;;;;;;;5.05;100.00;97983.83;1752408;81;21476;-66
2021/03/15 03:44:24;;;;;;;53.60;30.17;;;;;;;5.07;100.00;97981.21;1765556;80;20941;-66
2021/03/15 03:46:53;;;;;;;48.10;30.08;;;;;;;5.06;100.00;97977.73;1763725;79;20941;-65
2021/03/15 03:49:24;;;;;;;52.65;29.12;;;;;;;5.02;100.00;97970.77;1765842;81;21527;-66
2021/03/15 03:52:01;;;;;;;43.28;28.38;;;;;;;5.03;100.00;97967.72;1765261;80;20992;-66
2021/03/15 03:54:51;;;;;;;46.48;28.15;;;;;;;5.01;100.00;97974.27;1765584;80;20966;-58
2021/03/15 03:57:26;;;;;;;46.53;28.83;;;;;;;5.00;100.00;97979.05;1752877;80;20983;-63
2021/03/15 03:59:56;;;;;;;43.68;28.32;;;;;;;4.95;100.00;97969.05;1735725;81;21088;-66
2021/03/15 04:02:27;;;;;;;49.58;29.10;;;;;;;4.97;100.00;97966.44;1755623;80;21492;-66
2021/03/15 04:05:04;;;;;;;43.45;28.10;;;;;;;5.01;100.00;97961.20;1765777;80;21075;-66
2021/03/15 04:07:33;;;;;;;45.78;28.73;;;;;;;5.08;100.00;97951.59;1765622;81;20961;-67
2021/03/15 04:10:12;;;;;;;40.28;27.45;;;;;;;5.15;100.00;97943.28;1765625;79;20934;-65
2021/03/15 04:12:49;;;;;;;47.80;27.42;;;;;;;5.19;100.00;97953.72;1763434;80;20965;-65
2021/03/15 04:15:19;;;;;;;41.68;27.00;;;;;;;5.18;100.00;97957.64;1765839;80;21383;-65
2021/03/15 04:17:48;;;;;;;53.05;26.80;;;;;;;5.19;100.00;97957.64;1765690;80;20980;-64
2021/03/15 04:20:34;;;;;;;49.58;28.10;;;;;;;5.17;100.00;97959.39;1746714;80;21112;-65
2021/03/15 04:23:06;;;;;;;46.25;27.45;;;;;;;5.17;100.00;97959.39;1765744;80;20949;-65
2021/03/15 04:25:36;;;;;;;38.95;26.17;;;;;;;5.16;100.00;97958.96;1756677;79;21477;-65
2021/03/15 04:28:08;;;;;;;42.55;27.00;;;;;;;5.14;100.00;97958.09;1717866;82;21273;-65
2021/03/15 04:30:38;;;;;;;40.95;27.20;;;;;;;5.17;100.00;97962.01;1776173;79;20939;-65
2021/03/15 04:33:08;;;;;;;62.58;29.98;;;;;;;5.15;100.00;97961.58;1797855;78;20927;-65
2021/03/15 04:35:37;;;;;;;46.63;28.55;;;;;;;5.12;100.00;97965.08;1797854;78;20919;-65
2021/03/15 04:38:09;;;;;;;50.08;27.42;;;;;;;5.11;100.00;97962.03;1797252;79;21449;-65
2021/03/15 04:40:42;;;;;;;51.13;29.20;;;;;;;5.12;100.00;97971.61;1776494;79;22280;-66
2021/03/15 04:43:11;;;;;;;;;;;;;;;5.11;100.00;97967.26;1800436;78;21462;-65
2021/03/15 04:45:43;;;;;;;46.58;27.95;;;;;;;5.16;100.00;97963.32;1797688;78;20157;-65
2021/03/15 04:48:18;;;;;;;45.58;27.48;;;;;;;5.18;100.00;97967.67;1779157;79;20935;-65
2021/03/15 04:50:50;;;;;;;45.48;27.50;;;;;;;5.22;100.00;97964.64;1765427;80;21108;-65
2021/03/15 04:53:19;;;;;;;43.38;28.23;;;;;;;5.20;100.00;97970.27;1745308;81;21365;-65
2021/03/15 04:55:48;;;;;;;52.33;29.07;;;;;;;5.20;100.00;97968.97;1765765;80;21553;-65
2021/03/15 04:58:17;;;;;;;47.38;29.57;;;;;;;5.21;100.00;97968.13;1794681;78;21085;-65
2021/03/15 05:00:48;;;;;;;47.78;28.38;;;;;;;5.25;100.00;97973.34;1790580;79;21058;-65
2021/03/15 05:03:17;;;;;;;46.73;29.63;;;;;;;5.31;100.00;97973.75;1745291;81;20947;-65
2021/03/15 05:05:47;;;;;;;48.75;28.83;;;;;;;5.36;100.00;97977.21;1766339;81;21549;-65
2021/03/15 05:08:19;;;;;;;52.33;29.40;;;;;;;5.36;100.00;97970.67;1790101;78;20942;-66
2021/03/15 05:10:48;;;;;;;41.15;26.75;;;;;;;5.38;100.00;97971.54;1776179;79;21107;-65
2021/03/15 05:13:17;;;;;;;42.38;26.85;;;;;;;5.38;100.00;97967.17;1797817;78;20942;-65
2021/03/15 05:15:46;;;;;;;43.33;26.68;;;;;;;5.39;100.00;97975.89;1797853;78;20888;-66
2021/03/15 05:18:16;;;;;;;46.42;27.07;;;;;;;5.43;100.00;97966.28;1779443;79;21247;-65
2021/03/15 05:20:46;;;;;;;40.40;27.65;;;;;;;5.44;100.00;97970.20;1766255;80;20979;-66
2021/03/15 05:23:15;;;;;;;41.37;26.42;;;;;;;5.48;100.00;97964.08;1744987;81;20903;-65
2021/03/15 05:25:46;;;;;;;39.27;25.97;;;;;;;5.50;100.00;97958.84;1776599;79;21056;-65
2021/03/15 05:28:14;;;;;;;44.18;26.42;;;;;;;5.48;100.00;97962.77;1815279;77;21492;-65
2021/03/15 05:30:43;;;;;;;39.20;24.98;;;;;;;5.50;100.00;97958.84;1815422;78;22345;-65
2021/03/15 05:33:14;;;;;;;37.83;23.73;;;;;;;5.52;100.00;97958.39;1815374;77;21489;-65
2021/03/15 05:35:43;;;;;;;37.85;25.57;;;;;;;5.52;100.00;97963.19;1785229;79;21087;-65
2021/03/15 05:38:12;;;;;;;37.23;24.95;;;;;;;5.56;100.00;97966.66;1783316;79;21051;-65
2021/03/15 05:40:43;;;;;;;36.35;23.92;;;;;;;5.59;100.00;97974.05;1783243;79;20886;-66
2021/03/15 05:43:29;;;;;;;36.00;23.83;;;;;;;5.60;100.00;97969.69;1783330;80;22276;-65
2021/03/15 05:46:36;;;;;;;35.05;23.07;;;;;;;5.59;100.00;97970.56;1783221;80;21524;-65
2021/03/15 05:49:43;;;;;;;35.68;23.47;;;;;;;5.61;100.00;97980.14;1783273;80;20966;-66
2021/03/15 05:52:46;;;;;;;33.60;23.20;;;;;;;5.66;100.00;97986.22;1783235;79;20918;-65
2021/03/15 05:55:53;;;;;;;39.42;24.45;;;;;;;5.69;100.00;98005.86;1783540;79;20950;-66
2021/03/15 05:59:04;;;;;;;37.53;23.25;;;;;;;5.70;100.00;98004.11;1787914;79;22316;-66
2021/03/15 06:01:47;;;;;;;35.13;24.10;;;;;;;5.72;100.00;98005.41;1813091;79;20958;-65
2021/03/15 06:04:43;;;;;;;36.88;23.07;;;;;;;5.67;100.00;98004.09;1815269;77;20894;-65
2021/03/15 06:07:15;;;;;;;37.35;22.98;;;;;;;5.64;100.00;98002.80;1815436;79;21455;-66
2021/03/15 06:09:52;;;;;;;33.08;22.60;;;;;;;5.61;100.00;98012.84;1815630;79;21472;-65
2021/03/15 06:12:42;;;;;;;37.65;23.35;;;;;;;5.62;100.00;98008.04;1814017;77;22825;-66
2021/03/15 06:15:14;;;;;;;34.65;22.00;;;;;;;5.55;100.00;98012.87;1777479;79;20966;-66
2021/03/15 06:17:43;;;;;;;31.57;22.20;;;;;;;5.55;100.00;98012.00;1777476;80;21365;-66
2021/03/15 06:20:15;;;;;;;31.62;21.75;;;;;;;5.58;100.00;98014.16;1777423;79;20886;-65
2021/03/15 06:22:44;;;;;;;33.98;21.87;;;;;;;5.60;100.00;98018.08;1749747;79;20923;-66
2021/03/15 06:25:14;;;;;;;34.70;22.50;;;;;;;5.61;100.00;98016.77;1777521;79;20942;-66
2021/03/15 06:27:44;;;;;;;41.98;23.62;;;;;;;5.64;100.00;98013.27;1777504;79;20985;-65
2021/03/15 06:30:16;;;;;;;32.88;22.40;;;;;;;5.65;100.00;98009.33;1777404;79;21188;-66
2021/03/15 06:32:49;;;;;;;32.70;23.02;;;;;;;5.66;100.00;98011.51;1778320;79;21472;-65
2021/03/15 06:35:20;;;;;;;36.33;23.57;;;;;;;5.69;100.00;98014.14;1783804;79;21057;-66
2021/03/15 06:37:51;;;;;;;34.98;23.05;;;;;;;5.74;100.00;98009.75;1777588;80;20977;-66
2021/03/15 06:40:21;;;;;;;34.90;22.70;;;;;;;5.76;100.00;98013.23;1777566;80;20935;-65
2021/03/15 06:42:51;;;;;;;32.13;22.02;;;;;;;5.81;100.00;98017.13;1777624;80;22273;-65
2021/03/15 06:45:21;;;;;;;34.33;22.42;;;;;;;5.82;100.00;98018.87;1777470;80;21021;-65
2021/03/15 06:47:50;;;;;;;33.38;22.27;;;;;;;5.80;100.00;98014.95;1806950;79;21029;-65
2021/03/15 06:50:22;;;;;;;38.80;23.75;;;;;;;5.79;100.00;98014.52;1809321;78;20986;-65
2021/03/15 06:52:58;;;;;;;35.43;22.80;;;;;;;5.75;100.00;98015.42;1809400;78;20935;-65
2021/03/15 06:55:37;;;;;;;29.07;20.27;;;;;;;5.74;100.00;98017.61;1809512;78;22107;-66
2021/03/15 06:58:25;;;;;;;30.05;21.15;;;;;;;5.75;100.00;98015.42;1806521;79;20930;-66
2021/03/15 07:01:26;;;;;;;31.17;21.62;;;;;;;5.79;100.00;98017.14;1809502;78;21053;-65
2021/03/15 07:04:12;;;;;;;31.17;21.10;;;;;;;5.81;100.00;98015.83;1784862;79;20911;-65
2021/03/15 07:06:42;;;;;;;32.05;20.52;;;;;;;5.81;100.00;98014.08;1778776;79;21457;-65
2021/03/15 07:09:16;;;;;;;32.03;21.87;;;;;;;5.82;100.00;98018.87;1777505;80;22174;-65
2021/03/15 07:11:45;;;;;;;34.98;21.60;;;;;;;5.84;100.00;98015.81;1774910;80;20923;-65
2021/03/15 07:14:25;;;;;;;51.00;20.77;;;;;;;5.87;100.00;98014.48;1773066;81;20942;-66
2021/03/15 07:17:00;;;;;;;38.10;18.95;;;;;;;5.85;100.00;98002.72;1775198;79;20911;-65
2021/03/15 07:19:30;;;;;;;29.32;20.17;;;;;;;5.85;100.00;98005.77;1773039;79;21002;-65
2021/03/15 07:22:02;;;;;;;32.35;19.45;;;;;;;5.87;100.00;98006.19;1772929;79;21339;-65
2021/03/15 07:24:32;;;;;;;38.05;20.30;;;;;;;5.85;100.00;97999.23;1712636;79;28306;-65
2021/03/15 07:27:02;;;;;;;28.45;19.32;;;;;;;5.84;100.00;98000.11;1780180;79;20919;-65
2021/03/15 07:29:33;;;;;;;28.25;19.12;;;;;;;5.80;100.00;97995.77;1804219;79;20975;-65
2021/03/15 07:32:02;;;;;;;25.97;18.45;;;;;;;5.83;100.00;97995.31;1804274;78;21076;-67
2021/03/15 07:34:32;;;;;;;27.82;18.23;;;;;;;5.85;100.00;97986.14;1772514;79;22357;-65
2021/03/15 07:37:03;;;;;;;30.43;18.37;;;;;;;5.85;100.00;97980.91;1774183;79;20994;-65
2021/03/15 07:39:32;;;;;;;25.88;17.10;;;;;;;5.85;100.00;97973.06;1804104;78;20931;-65
2021/03/15 07:42:03;;;;;;;27.32;17.62;;;;;;;5.87;100.00;97961.70;1804173;78;20982;-65
2021/03/15 07:44:34;;;;;;;31.55;18.32;;;;;;;5.88;100.00;97967.36;1736735;81;20966;-66
2021/03/15 07:47:05;;;;;;;37.25;18.65;;;;;;;5.91;100.00;97970.00;1804279;78;21247;-66
2021/03/15 07:49:40;;;;;;;32.90;18.32;;;;;;;5.93;100.00;97956.89;1801755;78;20915;-66
2021/03/15 07:52:12;;;;;;;26.90;17.73;;;;;;;5.93;100.00;97968.67;1804192;78;21002;-66
2021/03/15 07:54:43;;;;;;;26.70;16.82;;;;;;;5.97;100.00;97971.70;1804173;78;21022;-66
2021/03/15 07:57:26;;;;;;;21.60;16.30;;;;;;;5.99;100.00;97969.50;1804475;79;21470;-66
2021/03/15 07:59:56;;;;;;;30.50;16.73;;;;;;;5.99;100.00;97977.80;1773631;79;21240;-66
2021/03/15 08:02:31;;;;;;;26.93;16.27;;;;;;;5.99;100.00;97979.10;1776707;79;21069;-65
2021/03/15 08:05:00;;;;;;;21.40;16.02;;;;;;;5.97;100.00;97986.09;1786523;79;21037;-65
2021/03/15 08:07:32;;;;;;;26.55;17.27;;;;;;;5.98;100.00;97972.13;1772575;79;20942;-66
2021/03/15 08:10:01;;;;;;;23.30;16.93;;;;;;;5.98;100.00;97961.66;1792410;79;21128;-65
2021/03/15 08:12:35;;;;;;;23.42;16.23;;;;;;;6.00;100.00;97962.52;1804213;78;21515;-66
2021/03/15 08:15:08;;;;;;;25.95;17.48;;;;;;;5.99;100.00;97958.16;1804287;79;20887;-65
2021/03/15 08:17:39;;;;;;;;;;;;;;;6.02;100.00;97959.89;1806881;79;20927;-66
2021/03/15 08:20:10;;;;;;;22.75;15.93;;;;;;;6.05;100.00;97959.43;1802208;79;20153;-66
2021/03/15 08:22:42;;;;;;;22.93;16.32;;;;;;;6.07;100.00;97957.67;1772744;79;21837;-65
2021/03/15 08:25:13;;;;;;;22.37;15.35;;;;;;;6.10;100.00;97955.47;1772699;79;21291;-65
2021/03/15 08:27:43;;;;;;;20.35;14.18;;;;;;;6.15;100.00;97966.77;1772582;79;21125;-66
2021/03/15 08:30:20;;;;;;;21.73;15.72;;;;;;;6.16;100.00;97951.52;1774608;79;21413;-65
2021/03/15 08:32:50;;;;;;;22.75;15.40;;;;;;;6.12;100.00;97954.58;1776358;79;20954;-65
2021/03/15 08:35:19;;;;;;;19.92;14.73;;;;;;;6.08;100.00;97955.92;1787007;79;20930;-66
2021/03/15 08:38:01;;;;;;;22.80;14.95;;;;;;;6.08;100.00;97959.41;1798016;78;21371;-65
2021/03/15 08:40:49;;;;;;;19.87;14.23;;;;;;;6.09;100.00;97959.83;1804351;78;21551;-66
2021/03/15 08:43:23;;;;;;;21.68;15.65;;;;;;;6.09;100.00;97954.59;1804173;79;20959;-66
2021/03/15 08:46:18;;;;;;;20.48;15.40;;;;;;;6.11;100.00;97963.75;1797351;78;20935;-66
2021/03/15 08:48:51;;;;;;;18.80;13.78;;;;;;;6.08;100.00;97963.33;1800706;79;21053;-66
2021/03/15 08:51:38;;;;;;;16.67;12.53;;;;;;;6.04;100.00;97960.31;1804289;79;22283;-66
2021/03/15 08:54:10;;;;;;;17.90;13.50;;;;;;;6.03;100.00;97956.39;1801001;79;20895;-66
2021/03/15 08:56:45;;;;;;;20.90;14.78;;;;;;;6.09;100.00;97956.34;1772463;81;21005;-66
2021/03/15 08:59:14;;;;;;;17.40;13.30;;;;;;;6.09;100.00;97956.34;1772441;79;21088;-66
2021/03/15 09:01:51;;;;;;;16.67;12.75;;;;;;;6.08;100.00;97963.33;1772497;79;21136;-66
2021/03/15 09:04:41;;;;;;;17.95;13.95;;;;;;;6.13;100.00;97961.98;1779088;79;21314;-68
2021/03/15 09:07:31;;;;;;;18.92;13.90;;;;;;;6.11;100.00;97957.20;1772356;79;21556;-68
2021/03/15 09:10:30;;;;;;;19.05;13.70;;;;;;;6.12;100.00;97954.58;1772443;81;21001;-68
2021/03/15 09:13:20;;;;;;;17.75;13.35;;;;;;;6.14;100.00;97953.25;1764623;79;21034;-67
2021/03/15 09:16:00;;;;;;;16.57;12.23;;;;;;;6.18;100.00;97949.32;1775834;79;20971;-66
2021/03/15 09:21:30;;;;;;;17.25;12.80;;;;;;;6.17;100.00;97946.72;1834902;78;22671;-66
2021/03/15 09:24:00;;;;;;;17.25;13.13;;;;;;;6.14;100.00;97955.88;1814683;79;20938;-67
2021/03/15 09:26:33;;;;;;;17.60;13.00;;;;;;;6.12;100.00;97949.78;1783810;79;20946;-67
2021/03/15 09:29:08;;;;;;;19.15;13.22;;;;;;;6.06;100.00;97947.20;1817437;79;21485;-68
2021/03/15 09:31:39;;;;;;;17.20;11.60;;;;;;;6.01;100.00;97943.31;1785886;79;20989;-67
2021/03/15 09:34:10;;;;;;;20.10;13.00;;;;;;;6.02;100.00;97940.26;1815243;79;20977;-67
2021/03/15 09:36:41;;;;;;;18.10;12.88;;;;;;;6.02;100.00;97943.75;1794940;79;20931;-69
2021/03/15 09:39:10;;;;;;;18.30;12.80;;;;;;;6.00;100.00;97941.14;1785194;80;21277;-69
2021/03/15 09:41:48;;;;;;;18.15;12.65;;;;;;;6.07;100.00;97939.78;1785208;80;21013;-68
2021/03/15 09:44:31;;;;;;;17.82;12.05;;;;;;;6.06;100.00;97934.98;1785272;80;21165;-69
2021/03/15 09:47:02;;;;;;;16.65;12.07;;;;;;;6.09;100.00;97933.66;1810954;79;20938;-68
2021/03/15 09:49:39;;;;;;;16.48;12.15;;;;;;;6.16;100.00;97929.27;1781375;80;20923;-68
2021/03/15 09:52:21;;;;;;;17.87;12.40;;;;;;;6.18;100.00;97924.45;1780768;80;21550;-66
2021/03/15 09:55:06;;;;;;;15.83;11.10;;;;;;;6.28;100.00;97930.03;1781142;80;20943;-68
2021/03/15 09:57:36;;;;;;;16.23;11.75;;;;;;;6.28;100.00;97906.47;1721661;82;20954;-67
2021/03/15 10:00:16;;;;;;;16.42;11.68;;;;;;;6.34;100.00;97903.36;1741356;82;21015;-69
2021/03/15 10:03:00;;;;;;;16.87;11.50;;;;;;;6.35;100.00;97905.97;1758618;80;21259;-70
2021/03/15 10:05:55;;;;;;;15.55;10.55;;;;;;;6.46;100.00;97888.84;1841738;77;22775;-67
2021/03/15 10:08:54;;;;;;;16.48;11.35;;;;;;;6.50;100.00;97912.37;1742251;81;21041;-68
2021/03/15 10:11:43;;;;;;;16.77;11.78;;;;;;;6.58;100.00;97914.47;1734013;82;20915;-68
2021/03/15 10:14:32;;;;;;;17.12;11.53;;;;;;;6.65;100.00;97903.95;1734869;82;20953;-66
2021/03/15 10:17:21;;;;;;;17.10;11.20;;;;;;;6.68;100.00;97907.41;1749065;79;21096;-69
2021/03/15 10:20:23;;;;;;;16.93;11.90;;;;;;;6.74;100.00;97905.17;1757626;81;21013;-68
2021/03/15 10:22:54;;;;;;;18.02;12.37;;;;;;;6.76;100.00;97907.33;1764620;81;21042;-65
2021/03/15 10:25:27;;;;;;;18.75;12.23;;;;;;;6.77;100.00;97903.83;1761279;80;21373;-68
2021/03/15 10:27:59;;;;;;;19.37;12.70;;;;;;;6.77;100.00;97905.13;1713195;82;20955;-67
2021/03/15 10:30:56;;;;;;;19.55;12.63;;;;;;;6.76;100.00;97897.71;1739476;81;20950;-68
2021/03/15 10:33:26;;;;;;;21.65;13.88;;;;;;;6.80;100.00;97893.30;1724706;82;21014;-67
2021/03/15 10:35:57;;;;;;;19.15;11.95;;;;;;;6.79;100.00;97891.13;1724630;82;21165;-68
2021/03/15 10:38:28;;;;;;;22.48;13.15;;;;;;;6.82;100.00;97892.84;1750011;81;21597;-66
2021/03/15 10:41:17;;;;;;;24.27;12.53;;;;;;;6.89;100.00;97883.58;1812703;78;22381;-67
2021/03/15 10:43:47;;;;;;;21.68;13.15;;;;;;;6.85;100.00;97881.87;1795587;79;20970;-68
2021/03/15 10:46:24;;;;;;;25.35;15.58;;;;;;;6.88;100.00;97877.91;1803570;78;21464;-65
2021/03/15 10:48:56;;;;;;;23.67;15.28;;;;;;;6.87;100.00;97867.00;1806777;79;21010;-67
2021/03/15 10:51:26;;;;;;;22.30;13.80;;;;;;;6.85;100.00;97869.22;1799637;79;21002;-68
2021/03/15 10:54:01;;;;;;;30.88;21.00;;;;;;;6.86;100.00;97869.20;1797969;77;21582;-67
2021/03/15 10:56:35;;;;;;;21.85;14.20;;;;;;;6.89;100.00;97863.92;1726668;81;20966;-68
2021/03/15 10:59:07;;;;;;;23.25;14.03;;;;;;;6.90;100.00;97866.97;1715060;82;26253;-68
2021/03/15 11:01:39;;;;;;;27.60;14.80;;;;;;;6.92;100.00;97859.95;1715932;82;21038;-69
2021/03/15 11:04:19;;;;;;;25.05;14.03;;;;;;;6.92;100.00;97862.58;1701921;81;20994;-68
2021/03/15 11:06:50;;;;;;;25.90;15.00;;;;;;;6.95;100.00;97853.80;1738353;80;20966;-69
2021/03/15 11:09:23;;;;;;;25.43;15.63;;;;;;;6.98;100.00;97852.90;1724060;82;21627;-66
2021/03/15 11:11:54;;;;;;;35.52;17.20;;;;;;;6.98;100.00;97847.66;1757075;79;21196;-65
2021/03/15 11:14:28;;;;;;;34.83;18.30;;;;;;;7.01;100.00;97852.41;1764484;81;21022;-66
2021/03/15 11:17:17;;;;;;;34.00;18.45;;;;;;;6.97;100.00;97854.66;1751829;80;20907;-66
2021/03/15 11:19:52;;;;;;;32.78;17.45;;;;;;;6.94;100.00;97836.34;1775418;80;21480;-65
2021/03/15 11:22:24;;;;;;;33.88;18.48;;;;;;;6.98;100.00;97845.90;1722346;81;20950;-66
2021/03/15 11:25:08;;;;;;;33.92;19.17;;;;;;;6.98;100.00;97843.72;1745548;81;21212;-66
2021/03/15 11:27:50;;;;;;;38.70;18.32;;;;;;;7.02;100.00;97833.62;1831972;76;22853;-66
2021/03/15 11:30:26;;;;;;;38.75;18.82;;;;;;;7.04;100.00;97830.53;1805756;79;21037;-65
2021/03/15 11:33:11;;;;;;;38.70;18.90;;;;;;;7.10;100.00;97814.75;1794510;77;21405;-65
2021/03/15 11:36:01;;;;;;;;;;;;;;;7.16;100.00;97820.78;1792689;77;20998;-66
2021/03/15 11:38:32;;;;;;;39.83;19.65;;;;;;;7.18;100.00;97819.00;1807274;78;20145;-66
2021/03/15 11:41:03;;;;;;;35.60;18.05;;;;;;;7.20;100.00;97821.59;1803795;79;20915;-64
2021/03/15 11:43:33;;;;;;;38.17;19.10;;;;;;;7.24;100.00;97818.91;1706252;82;21034;-64
2021/03/15 11:46:04;;;;;;;36.50;19.17;;;;;;;7.32;100.00;97815.31;1731185;82;21395;-64
2021/03/15 11:48:34;;;;;;;39.78;20.50;;;;;;;7.33;100.00;97804.80;1738802;82;20979;-64
2021/03/15 11:51:11;;;;;;;48.52;21.37;;;;;;;7.37;100.00;97813.04;1724507;82;21476;-65
2021/03/15 11:53:45;;;;;;;40.03;21.15;;;;;;;7.36;100.00;97806.06;1720519;82;21002;-65
2021/03/15 11:56:15;;;;;;;42.40;22.48;;;;;;;7.40;100.00;97805.13;1735309;81;20955;-65
2021/03/15 11:58:45;;;;;;;43.55;23.47;;;;;;;7.44;100.00;97799.39;1734413;82;21532;-66